Terminal Aerodrome Forecast
Issued by NWS

Home | Current Version | Previous Version | Text Only | Print | Product List | Glossary On
Versions: 1 2 3 4 5 6 7 8 9 10 11 12 13 14 15 16 17 18
000
FTUS41 KLWX 261400 AAA
TAFMTN
TAF AMD
KMTN 261436Z 2615/2712 06009KT 1SM -SN OVC008
     FM262200 04014G26KT 6SM -SN OVC008
     FM270300 36011G22KT 3SM -SN OVC008
     FM271100 33012G22KT P6SM OVC008=

USA.gov is the U.S. government's official web portal to all federal, state and local government web resources and services.